HWL215 YSSY-YMML
Flight info
| Callsign | HWL215 |
|---|---|
| Flight time | N/A |
| Altitude | 36000 |
| Route | YSSY/34R 3403S15124E WOL H65 LEECE Q29 ML |
| Aircraft | E190/M-SDE1E2E3FGHIJ3J4J7P2RWXY/LB1D1G1 |
Departure
| Time | 2026-05-04 05:45 |
|---|---|
| Airport | Sydney Kingsford Smith International Airport (YSSY) |
Arrival
| Time | N/A |
|---|---|
| Airport | Melbourne Airport (YMML) |
| Time | Latitude | Longitude | Altitude | Speed | Heading |
|---|---|---|---|---|---|
| 2026-05-04 05:45 | -34.25032 | 151.15778 | 15706 ft | 343 kts | 231° |
| 2026-05-04 05:45 | -34.26750 | 151.13741 | 16569 ft | 347 kts | 231° |
| 2026-05-04 05:47 | -34.39037 | 150.99133 | 21952 ft | 370 kts | 232° |
| 2026-05-04 05:47 | -34.40857 | 150.96965 | 22655 ft | 372 kts | 232° |
| 2026-05-04 05:47 | -34.42670 | 150.94801 | 23287 ft | 376 kts | 232° |
| 2026-05-04 05:48 | -34.44521 | 150.92593 | 23899 ft | 381 kts | 232° |
| 2026-05-04 05:48 | -34.46402 | 150.90347 | 24497 ft | 385 kts | 233° |
| 2026-05-04 05:48 | -34.48311 | 150.88065 | 25129 ft | 388 kts | 233° |
| 2026-05-04 05:48 | -34.50128 | 150.85893 | 25694 ft | 392 kts | 233° |
| 2026-05-04 05:49 | -34.52082 | 150.83554 | 26300 ft | 395 kts | 233° |
| 2026-05-04 05:49 | -34.54039 | 150.81212 | 26829 ft | 399 kts | 233° |
| 2026-05-04 05:49 | -34.55932 | 150.78824 | 27374 ft | 397 kts | 239° |
| 2026-05-04 05:49 | -34.57585 | 150.76154 | 27861 ft | 398 kts | 242° |
| 2026-05-04 05:51 | -34.69180 | 150.56895 | 31308 ft | 416 kts | 242° |
| 2026-05-04 05:51 | -34.70855 | 150.54108 | 31772 ft | 416 kts | 242° |
| 2026-05-04 05:52 | -34.72523 | 150.51329 | 32313 ft | 415 kts | 243° |
| 2026-05-04 05:52 | -34.74045 | 150.48790 | 32837 ft | 412 kts | 243° |
| 2026-05-04 05:52 | -34.75703 | 150.46024 | 33485 ft | 406 kts | 243° |
| 2026-05-04 05:52 | -34.77332 | 150.43301 | 34130 ft | 401 kts | 243° |
| 2026-05-04 05:53 | -34.78851 | 150.40764 | 34701 ft | 398 kts | 243° |
| 2026-05-04 05:54 | -34.90169 | 150.21777 | 35999 ft | 424 kts | 243° |
| 2026-05-04 05:55 | -34.93573 | 150.16052 | 35993 ft | 422 kts | 243° |
| 2026-05-04 05:55 | -34.97052 | 150.10190 | 36001 ft | 422 kts | 243° |
| 2026-05-04 05:56 | -35.00454 | 150.04445 | 35997 ft | 425 kts | 243° |
| 2026-05-04 05:56 | -35.03832 | 149.98734 | 35990 ft | 424 kts | 243° |
| 2026-05-04 05:57 | -35.07215 | 149.93004 | 35983 ft | 422 kts | 243° |
| 2026-05-04 05:57 | -35.10595 | 149.87268 | 35987 ft | 423 kts | 243° |
| 2026-05-04 05:58 | -35.14014 | 149.81457 | 35989 ft | 424 kts | 243° |
| 2026-05-04 05:58 | -35.17452 | 149.75604 | 36005 ft | 433 kts | 243° |
| 2026-05-04 05:59 | -35.20974 | 149.69601 | 35986 ft | 435 kts | 243° |
| 2026-05-04 05:59 | -35.24486 | 149.63603 | 35988 ft | 437 kts | 243° |
| 2026-05-04 06:00 | -35.28011 | 149.57573 | 35999 ft | 437 kts | 243° |
| 2026-05-04 06:00 | -35.31533 | 149.51535 | 35980 ft | 436 kts | 243° |
| 2026-05-04 06:01 | -35.35041 | 149.45514 | 35985 ft | 440 kts | 243° |
| 2026-05-04 06:03 | -35.49197 | 149.21104 | 36011 ft | 438 kts | 244° |
| 2026-05-04 06:05 | -35.64997 | 148.93657 | 36009 ft | 438 kts | 244° |
| 2026-05-04 06:06 | -35.68485 | 148.87569 | 36009 ft | 438 kts | 244° |
| 2026-05-04 06:06 | -35.71995 | 148.81430 | 36010 ft | 439 kts | 244° |
| 2026-05-04 06:07 | -35.75518 | 148.75259 | 36007 ft | 439 kts | 244° |
| 2026-05-04 06:07 | -35.79021 | 148.69112 | 36009 ft | 442 kts | 244° |
| 2026-05-04 06:08 | -35.82549 | 148.62911 | 35990 ft | 440 kts | 244° |
| 2026-05-04 06:08 | -35.86045 | 148.56752 | 35997 ft | 440 kts | 244° |
| 2026-05-04 06:09 | -35.89565 | 148.50534 | 36002 ft | 440 kts | 244° |
| 2026-05-04 06:11 | -36.03504 | 148.25732 | 36010 ft | 441 kts | 245° |
| 2026-05-04 06:13 | -36.17442 | 148.00800 | 35994 ft | 441 kts | 245° |
| 2026-05-04 06:14 | -36.29630 | 147.78911 | 35981 ft | 431 kts | 245° |
| 2026-05-04 06:15 | -36.32988 | 147.72847 | 35985 ft | 430 kts | 245° |
| 2026-05-04 06:15 | -36.36380 | 147.66702 | 35995 ft | 433 kts | 245° |
| 2026-05-04 06:16 | -36.39784 | 147.60527 | 35979 ft | 436 kts | 245° |
| 2026-05-04 06:16 | -36.43176 | 147.54362 | 35976 ft | 434 kts | 245° |
| 2026-05-04 06:17 | -36.46579 | 147.48163 | 35982 ft | 434 kts | 245° |
| 2026-05-04 06:17 | -36.49958 | 147.41998 | 35978 ft | 434 kts | 245° |
| 2026-05-04 06:18 | -36.53342 | 147.35820 | 35966 ft | 424 kts | 245° |
| 2026-05-04 06:20 | -36.66358 | 147.11919 | 35979 ft | 418 kts | 245° |
| 2026-05-04 06:21 | -36.73940 | 146.97932 | 35238 ft | 352 kts | 248° |
| 2026-05-04 06:21 | -36.75277 | 146.95458 | 34958 ft | 341 kts | 248° |
| 2026-05-04 06:22 | -36.76596 | 146.93013 | 34636 ft | 332 kts | 248° |
| 2026-05-04 06:22 | -36.77851 | 146.90685 | 34291 ft | 326 kts | 249° |
| 2026-05-04 06:25 | -36.92974 | 146.62523 | 28135 ft | 285 kts | 251° |
| 2026-05-04 06:25 | -36.94064 | 146.60486 | 27593 ft | 283 kts | 251° |
| 2026-05-04 06:26 | -36.95139 | 146.58475 | 27208 ft | 275 kts | 251° |
| 2026-05-04 06:26 | -36.96214 | 146.56451 | 27279 ft | 286 kts | 250° |
| 2026-05-04 06:26 | -36.97352 | 146.54311 | 27339 ft | 303 kts | 250° |
| 2026-05-04 06:26 | -36.98465 | 146.52222 | 27391 ft | 317 kts | 249° |
| 2026-05-04 06:27 | -37.03769 | 146.42265 | 27552 ft | 371 kts | 247° |
| 2026-05-04 06:28 | -37.05178 | 146.39616 | 27577 ft | 382 kts | 247° |
| 2026-05-04 06:28 | -37.06653 | 146.36839 | 27606 ft | 392 kts | 247° |
| 2026-05-04 06:28 | -37.08002 | 146.34297 | 27692 ft | 398 kts | 247° |
| 2026-05-04 06:28 | -37.09512 | 146.31459 | 28257 ft | 392 kts | 248° |
| 2026-05-04 06:29 | -37.11014 | 146.28624 | 28760 ft | 387 kts | 248° |
| 2026-05-04 06:29 | -37.12494 | 146.25825 | 29240 ft | 383 kts | 248° |
| 2026-05-04 06:29 | -37.13936 | 146.23103 | 29704 ft | 378 kts | 248° |
| 2026-05-04 06:29 | -37.15376 | 146.20375 | 30161 ft | 374 kts | 248° |
| 2026-05-04 06:30 | -37.16795 | 146.17690 | 30587 ft | 370 kts | 248° |
| 2026-05-04 06:30 | -37.18215 | 146.14998 | 31023 ft | 365 kts | 248° |
| 2026-05-04 06:30 | -37.19605 | 146.12361 | 31447 ft | 361 kts | 249° |
| 2026-05-04 06:30 | -37.20960 | 146.09790 | 31860 ft | 356 kts | 249° |
| 2026-05-04 06:31 | -37.22317 | 146.07211 | 32270 ft | 352 kts | 249° |
| 2026-05-04 06:31 | -37.23657 | 146.04663 | 32673 ft | 348 kts | 249° |
| 2026-05-04 06:31 | -37.24981 | 146.02144 | 33038 ft | 343 kts | 249° |
| 2026-05-04 06:31 | -37.26286 | 145.99660 | 33402 ft | 339 kts | 249° |
| 2026-05-04 06:32 | -37.27570 | 145.97209 | 33821 ft | 338 kts | 249° |